Nesbit, MS (38651)

8:25 AM CDT on July 26, 2016 (GMT -0500)
Skyler Estates | | Change Station

Elev 375 ft 34.91 °N, 89.98 °W | Updated 7 minutes ago

Scattered Clouds
Scattered Clouds
80.3 °F
Feels Like 85 °F
N
0.0
Wind Variable Wind from SSE
Gusts 5.0 mph

Today
High -- | Low -- °F
--% Chance of Precip.
Yesterday
High -- | Low -- °F
Precip. -- in
Pressure 30.00 in
Visibility 10.0 miles
Clouds Few 8000 ft
Scattered Clouds 20000 ft
Heat Index 85 °F
Dew Point 75 °F
Humidity 84%
Rainfall 0.00 in
Snow Depth Not available.
6:05 AM 8:06 PM
Waning Gibbous, 55% visible
METAR KMEM 261254Z 17003KT 10SM FEW080 SCT200 29/23 A3001 RMK AO2 SLP158 T02890228
Pressure 30.00 in
Visibility 10.0 miles
Clouds Few 8000 ft
Scattered Clouds 20000 ft
Heat Index 85 °F
Dew Point 75 °F
Humidity 84%
Rainfall 0.00 in
Snow Depth Not available.
6:05 AM 8:06 PM
Waning Gibbous, 55% visible
METAR KMEM 261254Z 17003KT 10SM FEW080 SCT200 29/23 A3001 RMK AO2 SLP158 T02890228

10-Day Weather Forecast

Almanac

Astronomy

Jul. 26, 2016 Rise Set
Actual Time
Civil Twilight
Nautical Twilight
Astronomical Twilight
Moon
Length of Visible Light
Length of Day
Tomorrow will be .
, % of the Moon is Illuminated

Today's Extremes

State Highs State Lows

Community

WunderPhotos

Upload Photos

1,927,582 photos uploaded!

WunderBlog® & News

Nearby

Air Quality

  Air Quality AQ Index Pollutant
Not available.

Snow Depth

Station Depth Elevation

Earthquake Activity

City Distance Mag. Time & Date
Minimum magnitude displayed is 2.5.

Coastal Water Temperatures

Place Temperature

Stations

Nearby Weather Stations

Station Location Temp. Windchill Dew Point Humidity Wind Precip. Elev Updated Type
                   

Watches & Warnings

There are currently no watches in effect.